Time;durP1;ratioP1;P1;durP2;ratioP2;P2;SDS_P1;SDS_P2;PMS_P1;PMS_P2;Temp;Humidity;BMP_temperature;BMP_pressure;BME280_temperature;BME280_humidity;BME280_pressure;Samples;Min_cycle;Max_cycle;Signal;HPM_P1;HPM_P2
2021/09/04 00:01:03;;;;;;;15.75;13.65;;;;;;;16.34;84.97;100399.11;2825417;84;21009;-62
2021/09/04 00:05:07;;;;;;;22.05;15.23;;;;;;;16.31;85.01;100389.18;2825311;84;21009;-61
2021/09/04 00:09:14;;;;;;;15.35;13.55;;;;;;;16.27;85.05;100388.16;2825354;82;21023;-62
2021/09/04 00:13:16;;;;;;;20.62;13.22;;;;;;;16.23;85.32;100385.95;2831669;84;20957;-63
2021/09/04 00:17:19;;;;;;;17.82;15.03;;;;;;;16.16;85.44;100387.61;2808688;84;21012;-61
2021/09/04 00:21:21;;;;;;;15.32;13.03;;;;;;;16.13;85.51;100383.39;2838394;84;20964;-62
2021/09/04 00:25:42;;;;;;;21.77;16.32;;;;;;;16.09;85.96;100384.20;2838322;83;20945;-61
2021/09/04 00:29:44;;;;;;;18.92;13.50;;;;;;;15.85;86.26;100371.48;2838290;83;21047;-61
2021/09/04 00:33:45;;;;;;;19.67;14.85;;;;;;;15.72;86.59;100369.20;2838535;83;20992;-62
2021/09/04 00:37:52;;;;;;;19.50;14.55;;;;;;;15.69;87.45;100365.01;2838248;84;20957;-62
2021/09/04 00:41:54;;;;;;;15.25;12.70;;;;;;;15.77;87.66;100369.59;2838538;84;20988;-63
2021/09/04 00:46:11;;;;;;;20.57;13.72;;;;;;;15.80;87.02;100377.31;2839035;82;21074;-63
2021/09/04 00:50:13;;;;;;;20.30;15.03;;;;;;;15.83;86.98;100374.83;2838973;84;21008;-62
2021/09/04 00:54:15;;;;;;;20.50;14.83;;;;;;;15.80;86.16;100373.29;2838957;84;21039;-62
2021/09/04 00:58:26;;;;;;;19.90;14.07;;;;;;;15.78;86.83;100369.07;2839040;84;20988;-62
2021/09/04 01:02:30;;;;;;;16.57;14.63;;;;;;;15.77;85.75;100366.05;2839053;84;20996;-62
2021/09/04 01:06:31;;;;;;;13.83;12.30;;;;;;;15.70;85.16;100365.83;2839034;82;20948;-62
2021/09/04 01:10:34;;;;;;;17.40;12.75;;;;;;;15.58;84.67;100375.98;2839019;84;21429;-62
2021/09/04 01:14:35;;;;;;;53.65;16.40;;;;;;;15.49;85.20;100374.25;2806353;84;21017;-62
2021/09/04 01:18:37;;;;;;;13.90;10.15;;;;;;;15.45;85.61;100372.89;2755176;86;21056;-61
2021/09/04 01:22:39;;;;;;;13.80;12.43;;;;;;;15.37;86.27;100377.16;2755293;86;20929;-62
2021/09/04 01:26:41;;;;;;;15.83;12.35;;;;;;;15.36;87.09;100378.67;2755151;86;21000;-62
2021/09/04 01:30:53;;;;;;;15.85;11.90;;;;;;;15.33;86.56;100374.45;2755187;86;20985;-62
2021/09/04 01:34:55;;;;;;;14.07;12.53;;;;;;;15.32;86.03;100378.13;2755135;86;21024;-62
2021/09/04 01:38:56;;;;;;;17.02;12.28;;;;;;;15.25;85.43;100371.20;2741435;86;20996;-62
2021/09/04 01:42:58;;;;;;;17.50;11.90;;;;;;;15.19;85.39;100377.67;2805974;84;20956;-62
2021/09/04 01:47:40;;;;;;;18.90;11.40;;;;;;;15.11;84.63;100372.59;2818884;83;20987;-61
2021/09/04 01:51:41;;;;;;;15.58;12.00;;;;;;;15.07;85.04;100360.99;2860979;83;21031;-62
2021/09/04 01:55:43;;;;;;;13.38;11.85;;;;;;;14.98;85.00;100358.25;2861066;83;21003;-62
2021/09/04 01:59:46;;;;;;;19.70;15.60;;;;;;;14.95;85.21;100359.91;2860957;83;20996;-62
2021/09/04 02:03:53;;;;;;;17.70;14.23;;;;;;;14.90;85.28;100360.01;2860997;83;21035;-62
2021/09/04 02:07:54;;;;;;;46.90;23.47;;;;;;;14.83;85.29;100350.40;2861012;83;21016;-61
2021/09/04 02:11:56;;;;;;;36.25;23.65;;;;;;;14.84;85.75;100356.09;2860988;83;20933;-62
2021/09/04 02:15:58;;;;;;;28.60;22.90;;;;;;;14.81;86.49;100345.70;2861056;83;21541;-62
2021/09/04 02:20:06;;;;;;;21.30;18.65;;;;;;;14.78;86.54;100340.65;2860936;83;21023;-62
2021/09/04 02:24:08;;;;;;;26.25;20.80;;;;;;;14.74;86.04;100347.28;2861168;83;20988;-61
2021/09/04 02:28:11;;;;;;;29.25;20.17;;;;;;;14.72;85.86;100346.11;2860967;83;20963;-63
2021/09/04 02:32:13;;;;;;;19.92;17.85;;;;;;;14.68;85.47;100348.20;2860837;83;20968;-61
2021/09/04 02:36:15;;;;;;;21.07;17.77;;;;;;;14.61;85.38;100351.16;2861096;83;21031;-62
2021/09/04 02:40:31;;;;;;;22.62;17.12;;;;;;;14.57;85.41;100355.13;2854404;83;21099;-62
2021/09/04 02:44:33;;;;;;;22.58;17.37;;;;;;;14.52;85.36;100365.42;2821862;84;20977;-62
2021/09/04 02:48:35;;;;;;;22.13;16.40;;;;;;;14.45;85.11;100371.89;2821753;83;21067;-62
2021/09/04 02:52:37;;;;;;;26.80;15.78;;;;;;;14.43;85.38;100371.17;2821600;84;20961;-62
2021/09/04 02:56:39;;;;;;;39.08;12.60;;;;;;;14.41;85.24;100371.34;2821748;84;20961;-62
2021/09/04 03:00:40;;;;;;;38.17;11.65;;;;;;;14.36;85.81;100370.95;2821803;84;21000;-62
2021/09/04 03:04:42;;;;;;;13.75;8.93;;;;;;;14.35;85.98;100366.59;2821733;84;21404;-62
2021/09/04 03:09:08;;;;;;;18.73;11.45;;;;;;;14.33;85.52;100365.87;2821827;84;20977;-62
2021/09/04 03:13:10;;;;;;;39.00;10.30;;;;;;;14.31;85.62;100366.52;2821795;84;20988;-62
2021/09/04 03:17:12;;;;;;;11.03;8.48;;;;;;;14.21;85.08;100363.05;2821640;84;20974;-63
2021/09/04 03:21:13;;;;;;;17.37;11.25;;;;;;;14.11;84.96;100361.25;2821716;84;20997;-62
2021/09/04 03:25:15;;;;;;;13.83;10.05;;;;;;;13.97;84.76;100365.77;2821724;84;21021;-62
2021/09/04 03:29:17;;;;;;;20.17;10.75;;;;;;;13.89;85.52;100357.61;2821614;84;21052;-62
2021/09/04 03:33:19;;;;;;;13.60;10.10;;;;;;;13.77;85.66;100351.12;2821554;84;20993;-62
2021/09/04 03:37:22;;;;;;;14.73;9.95;;;;;;;13.74;85.77;100354.05;2821097;84;21005;-62
2021/09/04 03:41:28;;;;;;;16.45;9.90;;;;;;;13.70;86.00;100353.52;2822555;84;21028;-62
2021/09/04 03:45:29;;;;;;;;;;;;;;;13.72;86.28;100360.05;2827630;83;20996;-61
2021/09/04 03:49:31;;;;;;;29.20;9.10;;;;;;;13.67;86.32;100363.17;2824854;84;20082;-62
2021/09/04 03:53:33;;;;;;;34.33;10.00;;;;;;;13.67;87.07;100369.00;2824675;84;20953;-62
2021/09/04 03:57:36;;;;;;;14.35;9.28;;;;;;;13.73;87.01;100376.43;2824851;84;20966;-62
2021/09/04 04:01:38;;;;;;;27.67;7.92;;;;;;;13.71;86.97;100379.74;2825104;84;20941;-62
2021/09/04 04:05:40;;;;;;;12.47;7.80;;;;;;;13.62;86.40;100387.30;2825188;84;20981;-62
2021/09/04 04:09:44;;;;;;;16.30;8.48;;;;;;;13.51;86.99;100388.30;2825173;84;20992;-61
2021/09/04 04:13:46;;;;;;;12.35;8.45;;;;;;;13.54;88.25;100395.52;2825115;82;21004;-62
2021/09/04 04:17:47;;;;;;;10.05;7.75;;;;;;;13.58;87.33;100396.59;2825175;84;20992;-62
2021/09/04 04:21:56;;;;;;;21.85;10.18;;;;;;;13.50;87.15;100400.81;2825233;84;21004;-62
2021/09/04 04:25:58;;;;;;;22.67;9.13;;;;;;;13.51;87.19;100403.83;2824953;84;21048;-61
2021/09/04 04:30:00;;;;;;;11.22;8.75;;;;;;;13.40;86.84;100403.45;2825260;84;20930;-62
2021/09/04 04:34:17;;;;;;;34.55;9.48;;;;;;;13.39;88.17;100416.47;2824976;84;21001;-61
2021/09/04 04:38:18;;;;;;;17.02;8.78;;;;;;;13.53;88.68;100411.20;2825350;84;20989;-61
2021/09/04 04:42:20;;;;;;;16.67;7.83;;;;;;;13.56;87.32;100414.09;2825724;83;21013;-61
2021/09/04 04:46:21;;;;;;;16.02;7.65;;;;;;;13.56;87.69;100410.95;2826561;83;20993;-62
2021/09/04 04:50:29;;;;;;;10.03;6.90;;;;;;;13.56;87.47;100414.09;2826110;84;21032;-62
2021/09/04 04:54:31;;;;;;;14.70;8.15;;;;;;;13.64;87.48;100414.22;2825705;84;20973;-62
2021/09/04 04:58:39;;;;;;;13.93;8.70;;;;;;;13.55;87.52;100419.92;2826251;82;20996;-62
2021/09/04 05:02:40;;;;;;;15.70;8.48;;;;;;;13.45;87.90;100421.78;2826084;84;21048;-62
2021/09/04 05:06:42;;;;;;;13.55;7.95;;;;;;;13.35;89.08;100412.88;2825968;84;21017;-62
2021/09/04 05:10:44;;;;;;;9.05;7.42;;;;;;;13.37;90.07;100409.09;2825902;84;21008;-62
2021/09/04 05:15:10;;;;;;;11.70;7.62;;;;;;;13.43;90.61;100415.73;2825961;82;20996;-61
2021/09/04 05:19:11;;;;;;;8.87;8.07;;;;;;;13.59;92.00;100411.14;2810015;84;20949;-61
2021/09/04 05:23:13;;;;;;;17.37;8.78;;;;;;;13.72;90.41;100405.48;2811215;84;21490;-62
2021/09/04 05:27:15;;;;;;;14.95;8.18;;;;;;;13.77;89.72;100415.28;2811531;85;21023;-61
2021/09/04 05:31:21;;;;;;;16.23;7.60;;;;;;;13.92;91.38;100412.12;2811512;84;21008;-61
2021/09/04 05:35:22;;;;;;;10.60;7.22;;;;;;;14.20;91.29;100417.55;2811546;82;21000;-62
2021/09/04 05:39:24;;;;;;;11.00;8.73;;;;;;;14.53;92.34;100413.45;2811632;84;21003;-61
2021/09/04 05:43:38;;;;;;;18.15;8.13;;;;;;;14.69;89.41;100418.16;2811022;84;20956;-61
2021/09/04 05:47:40;;;;;;;10.80;8.18;;;;;;;14.71;88.92;100417.54;2810729;85;20968;-62
2021/09/04 05:51:41;;;;;;;13.35;8.80;;;;;;;14.87;88.81;100418.72;2811415;85;21011;-62
2021/09/04 05:56:05;;;;;;;11.15;8.38;;;;;;;14.81;89.41;100420.67;2811414;85;21078;-61
2021/09/04 06:00:08;;;;;;;11.97;8.05;;;;;;;14.83;89.05;100419.51;2811401;84;20964;-62
2021/09/04 06:04:09;;;;;;;9.40;8.00;;;;;;;15.16;91.85;100415.02;2811359;84;20969;-62
2021/09/04 06:08:11;;;;;;;11.22;9.43;;;;;;;15.37;88.92;100412.52;2816711;84;21609;-61
2021/09/04 06:12:15;;;;;;;9.25;8.35;;;;;;;15.58;89.46;100409.49;2821935;84;20992;-63
2021/09/04 06:16:16;;;;;;;10.68;8.35;;;;;;;15.60;87.83;100414.71;2835579;80;21000;-61
2021/09/04 06:20:21;;;;;;;12.58;10.03;;;;;;;15.65;89.01;100423.13;2817370;83;21028;-62
2021/09/04 06:24:22;;;;;;;13.43;9.30;;;;;;;15.77;91.33;100419.20;2848610;83;20975;-61
2021/09/04 06:28:25;;;;;;;14.87;9.85;;;;;;;16.15;91.60;100420.81;2842008;82;20981;-61
2021/09/04 06:32:27;;;;;;;10.45;8.90;;;;;;;16.46;90.84;100413.56;2835707;82;21038;-62
2021/09/04 06:36:38;;;;;;;11.95;8.68;;;;;;;16.77;88.80;100408.98;2835543;84;20984;-61
2021/09/04 06:40:40;;;;;;;9.95;9.05;;;;;;;17.08;88.99;100418.66;2785882;85;20996;-61
2021/09/04 06:44:41;;;;;;;11.70;9.43;;;;;;;17.53;87.44;100420.55;2795695;84;21054;-61
2021/09/04 06:48:43;;;;;;;14.25;10.05;;;;;;;17.70;85.16;100428.62;2781720;85;21018;-61
2021/09/04 06:52:56;;;;;;;11.63;10.45;;;;;;;17.81;84.69;100424.73;2851988;83;20968;-61
2021/09/04 06:57:00;;;;;;;14.30;11.50;;;;;;;17.85;85.34;100424.20;2927720;81;20921;-61
2021/09/04 07:01:13;;;;;;;15.83;9.60;;;;;;;18.03;84.81;100425.06;2928937;81;20976;-62
2021/09/04 07:05:15;;;;;;;15.38;12.40;;;;;;;18.31;85.78;100420.11;2835285;84;20992;-61
2021/09/04 07:09:17;;;;;;;17.62;14.07;;;;;;;18.63;84.33;100425.02;2788281;85;21032;-62
2021/09/04 07:13:18;;;;;;;17.73;13.62;;;;;;;18.79;84.86;100425.95;2835356;83;20957;-62
2021/09/04 07:17:20;;;;;;;20.92;15.43;;;;;;;19.08;85.03;100437.97;2834855;83;20960;-62
2021/09/04 07:21:22;;;;;;;19.10;15.80;;;;;;;19.66;82.99;100433.49;2848656;83;20959;-62
2021/09/04 07:25:23;;;;;;;20.60;15.38;;;;;;;19.88;80.06;100433.63;2841642;83;20988;-62
2021/09/04 07:29:30;;;;;;;21.90;16.87;;;;;;;20.05;78.06;100429.77;2841822;84;21455;-62
2021/09/04 07:33:32;;;;;;;24.77;18.10;;;;;;;20.33;77.17;100435.87;2841646;84;21094;-63
2021/09/04 07:37:54;;;;;;;20.37;16.15;;;;;;;20.58;76.08;100436.91;2842844;83;21016;-63
2021/09/04 07:42:00;;;;;;;31.85;16.25;;;;;;;20.77;76.27;100440.05;2888727;81;21006;-62
2021/09/04 07:46:02;;;;;;;18.87;16.30;;;;;;;20.63;74.98;100435.83;2938466;81;21038;-62
2021/09/04 07:50:06;;;;;;;20.00;15.05;;;;;;;20.48;75.13;100445.84;2938598;81;20915;-62
2021/09/04 07:54:07;;;;;;;22.07;15.83;;;;;;;20.47;75.55;100449.03;2938597;81;20979;-62
2021/09/04 07:58:09;;;;;;;19.25;17.17;;;;;;;20.74;76.72;100447.20;2938509;81;20951;-62
2021/09/04 08:02:11;;;;;;;20.00;16.27;;;;;;;20.80;75.38;100449.16;2888211;81;21014;-62
2021/09/04 08:06:18;;;;;;;21.27;16.80;;;;;;;20.89;75.37;100448.04;2878344;83;20950;-61
2021/09/04 08:10:20;;;;;;;21.02;16.70;;;;;;;21.11;76.06;100447.53;2878498;83;20962;-61
2021/09/04 08:14:22;;;;;;;22.75;17.05;;;;;;;21.28;75.20;100453.23;2878280;83;20951;-61
2021/09/04 08:18:24;;;;;;;21.52;16.27;;;;;;;21.38;74.73;100457.80;2878427;83;20986;-62
2021/09/04 08:22:25;;;;;;;21.10;16.27;;;;;;;21.48;73.96;100464.23;2878524;83;20963;-63
2021/09/04 08:26:27;;;;;;;24.18;18.00;;;;;;;21.60;74.93;100469.47;2878308;82;20986;-62
2021/09/04 08:30:29;;;;;;;17.92;15.70;;;;;;;21.81;73.61;100459.17;2921491;79;20970;-62
2021/09/04 08:34:42;;;;;;;21.45;16.35;;;;;;;21.97;72.69;100459.39;2983034;79;20986;-61
2021/09/04 08:38:44;;;;;;;27.73;17.48;;;;;;;22.05;72.83;100461.62;2991367;79;21021;-62
2021/09/04 08:42:47;;;;;;;27.45;16.97;;;;;;;22.06;73.41;100458.72;2984119;79;21602;-62
2021/09/04 08:46:55;;;;;;;20.70;15.30;;;;;;;22.27;72.79;100459.69;2973906;80;20983;-62
2021/09/04 08:50:57;;;;;;;28.50;18.60;;;;;;;22.45;71.82;100466.47;2924724;80;20990;-62
2021/09/04 08:55:11;;;;;;;20.75;16.65;;;;;;;22.55;70.71;100462.88;2914970;81;20983;-62
2021/09/04 08:59:12;;;;;;;22.40;15.85;;;;;;;22.59;70.53;100461.44;2875708;80;20981;-63
2021/09/04 09:03:28;;;;;;;24.00;16.45;;;;;;;22.63;70.37;100476.28;2866867;82;20922;-61
2021/09/04 09:07:48;;;;;;;20.27;15.20;;;;;;;22.54;70.75;100474.27;2866920;82;21032;-63
2021/09/04 09:11:58;;;;;;;28.87;17.45;;;;;;;22.53;71.36;100474.45;2884963;81;20927;-62
2021/09/04 09:15:59;;;;;;;20.15;14.55;;;;;;;22.59;71.58;100473.63;2916612;80;21017;-62
2021/09/04 09:20:06;;;;;;;21.97;16.00;;;;;;;22.74;71.73;100470.81;2798710;85;20953;-62
2021/09/04 09:24:27;;;;;;;20.43;15.15;;;;;;;22.86;71.30;100464.28;2798857;85;20933;-62
2021/09/04 09:28:29;;;;;;;22.90;15.75;;;;;;;22.96;70.42;100469.33;2798838;85;21005;-62
2021/09/04 09:32:53;;;;;;;20.05;15.40;;;;;;;23.06;70.05;100468.94;2799026;84;21534;-62
2021/09/04 09:37:00;;;;;;;18.20;15.28;;;;;;;23.07;70.22;100463.83;2798965;85;21032;-61
2021/09/04 09:41:54;;;;;;;19.00;14.07;;;;;;;22.98;69.96;100459.10;2830844;84;20964;-62
2021/09/04 09:46:02;;;;;;;20.62;14.87;;;;;;;23.10;69.07;100459.34;2835403;84;20988;-61
2021/09/04 09:50:11;;;;;;;19.57;15.38;;;;;;;23.13;69.08;100458.11;2827120;84;21003;-62
2021/09/04 09:54:12;;;;;;;16.87;12.98;;;;;;;23.24;70.01;100461.56;2788876;84;20960;-62
2021/09/04 09:58:59;;;;;;;14.87;13.13;;;;;;;23.24;67.68;100456.98;2788869;81;20972;-63
2021/09/04 10:03:03;;;;;;;24.87;15.08;;;;;;;23.36;68.04;100457.75;2788781;84;21003;-62
2021/09/04 10:07:18;;;;;;;16.62;13.15;;;;;;;23.40;66.95;100463.09;2788741;84;20991;-62
2021/09/04 10:11:19;;;;;;;15.53;12.53;;;;;;;23.18;66.86;100469.17;2788648;81;21007;-61
2021/09/04 10:15:26;;;;;;;24.82;13.05;;;;;;;23.09;66.93;100466.66;2788436;84;21020;-61
2021/09/04 10:19:33;;;;;;;17.70;12.35;;;;;;;23.09;66.04;100469.88;2788490;85;20972;-62
2021/09/04 10:23:39;;;;;;;23.42;11.65;;;;;;;23.03;66.17;100462.03;2788347;84;21052;-62
2021/09/04 10:27:45;;;;;;;17.50;12.65;;;;;;;23.17;67.11;100460.18;2788492;85;20984;-62
2021/09/04 10:32:19;;;;;;;20.75;12.15;;;;;;;23.31;65.23;100452.11;2788658;84;21015;-61
2021/09/04 10:36:24;;;;;;;15.38;11.88;;;;;;;23.36;65.99;100452.32;2788508;84;20976;-62
2021/09/04 10:40:45;;;;;;;14.00;10.93;;;;;;;23.57;66.39;100445.88;2788605;85;20996;-61
2021/09/04 10:44:53;;;;;;;14.23;11.33;;;;;;;23.63;65.70;100451.83;2817132;83;20996;-62
2021/09/04 10:49:04;;;;;;;14.80;11.73;;;;;;;23.67;63.50;100443.56;2835174;84;21028;-62
2021/09/04 10:53:07;;;;;;;19.40;11.12;;;;;;;23.69;64.26;100447.44;2835527;84;21024;-62
2021/09/04 10:57:21;;;;;;;17.02;12.63;;;;;;;23.93;65.04;100450.55;2835805;83;21067;-63
2021/09/04 11:01:47;;;;;;;25.20;13.58;;;;;;;24.24;64.14;100442.30;2829708;82;21035;-62
2021/09/04 11:06:02;;;;;;;19.30;11.45;;;;;;;24.45;63.40;100445.79;2788628;85;20976;-62
2021/09/04 11:10:13;;;;;;;27.52;12.53;;;;;;;24.61;60.86;100444.47;2788775;84;20957;-62
2021/09/04 11:14:21;;;;;;;13.75;11.05;;;;;;;24.67;59.83;100445.80;2780349;85;21032;-62
2021/09/04 11:18:27;;;;;;;28.23;10.90;;;;;;;24.74;59.47;100446.29;2789158;85;21057;-61
2021/09/04 11:22:28;;;;;;;13.48;9.75;;;;;;;24.63;58.85;100448.65;2765015;82;21043;-63
2021/09/04 11:26:30;;;;;;;12.95;10.15;;;;;;;24.38;60.25;100445.30;2789359;82;21044;-62
2021/09/04 11:30:33;;;;;;;15.18;10.60;;;;;;;24.16;60.16;100449.30;2789385;82;21000;-62
2021/09/04 11:34:48;;;;;;;14.78;11.08;;;;;;;24.07;59.92;100440.02;2788752;84;21011;-63
2021/09/04 11:47:05;;;;;;;17.60;9.53;;;;;;;24.53;59.68;100436.02;2784723;80;21089;-61
2021/09/04 11:51:07;;;;;;;13.58;10.58;;;;;;;24.67;58.60;100439.00;2735502;85;21044;-62
2021/09/04 11:55:30;;;;;;;16.45;11.50;;;;;;;24.63;58.55;100432.84;2735466;86;21059;-61
2021/09/04 11:59:31;;;;;;;22.07;10.48;;;;;;;24.68;58.64;100424.36;2735718;85;21014;-63
2021/09/04 12:03:57;;;;;;;16.25;11.28;;;;;;;24.78;57.45;100431.27;2735615;85;20973;-61
2021/09/04 12:22:33;;;;;;;12.35;9.80;;;;;;;25.04;54.83;100424.00;2800534;81;21072;-60
2021/09/04 12:26:34;;;;;;;14.95;10.13;;;;;;;25.07;56.55;100433.08;2792405;84;21081;-61
2021/09/04 12:31:08;;;;;;;14.20;10.65;;;;;;;25.16;55.63;100428.21;2792429;84;21001;-62
2021/09/04 12:35:24;;;;;;;15.13;10.32;;;;;;;25.21;55.32;100427.87;2793539;84;20965;-61
2021/09/04 12:39:30;;;;;;;55.17;26.85;;;;;;;25.20;56.60;100419.91;2792476;83;21064;-62
2021/09/04 12:44:03;;;;;;;16.73;10.43;;;;;;;25.32;55.96;100422.75;2792591;84;20985;-61
2021/09/04 12:48:06;;;;;;;14.05;10.48;;;;;;;25.12;55.07;100431.89;2792505;85;21001;-61
2021/09/04 12:52:20;;;;;;;18.42;11.83;;;;;;;24.83;55.68;100425.15;2792015;84;21002;-62
2021/09/04 12:56:46;;;;;;;24.18;15.75;;;;;;;24.57;55.75;100437.28;2792502;83;21045;-68
2021/09/04 13:01:26;;;;;;;12.77;9.90;;;;;;;24.57;56.12;100433.72;2792337;84;21068;-70
2021/09/04 13:05:28;;;;;;;13.72;10.55;;;;;;;24.73;57.78;100431.02;2792443;85;21229;-64
2021/09/04 13:09:30;;;;;;;16.55;11.93;;;;;;;24.84;57.41;100430.38;2792470;84;21012;-64
2021/09/04 13:13:31;;;;;;;12.13;9.85;;;;;;;25.03;56.01;100427.77;2792412;84;20978;-65
2021/09/04 13:17:33;;;;;;;14.35;9.65;;;;;;;25.18;54.56;100432.39;2838721;84;20960;-64
2021/09/04 13:21:35;;;;;;;15.70;10.40;;;;;;;25.26;54.84;100419.56;2832531;82;21028;-63
2021/09/04 13:25:46;;;;;;;15.78;9.45;;;;;;;25.46;55.93;100407.17;2808591;80;21038;-64
2021/09/04 13:29:48;;;;;;;14.13;10.48;;;;;;;25.49;54.51;100413.56;2799314;84;21062;-65
2021/09/04 13:34:14;;;;;;;19.85;10.72;;;;;;;25.18;55.20;100416.06;2799411;85;21011;-64
2021/09/04 13:38:16;;;;;;;26.62;9.80;;;;;;;24.89;55.99;100417.50;2806324;83;21088;-66
2021/09/04 13:42:17;;;;;;;13.35;10.23;;;;;;;24.62;55.92;100419.79;2822623;83;21002;-65
2021/09/04 13:46:50;;;;;;;15.23;9.70;;;;;;;24.66;56.70;100422.89;2812342;83;21046;-65
2021/09/04 13:50:52;;;;;;;12.15;10.23;;;;;;;24.80;56.54;100414.20;2753313;85;21003;-64
2021/09/04 13:54:54;;;;;;;15.83;10.50;;;;;;;25.03;55.77;100412.80;2775086;80;21011;-65
2021/09/04 13:58:56;;;;;;;14.98;10.98;;;;;;;25.16;56.26;100412.73;2799285;84;20979;-64
2021/09/04 14:02:58;;;;;;;78.05;38.40;;;;;;;25.08;56.24;100416.55;2798893;85;21772;-65
2021/09/04 14:06:59;;;;;;;58.08;33.63;;;;;;;25.06;56.49;100416.45;2799446;83;20944;-64
2021/09/04 14:11:01;;;;;;;83.65;40.55;;;;;;;25.04;56.49;100411.75;2799389;85;21047;-65
2021/09/04 14:15:04;;;;;;;27.32;15.80;;;;;;;25.01;55.74;100413.02;2799157;81;21011;-64
2021/09/04 14:19:33;;;;;;;32.20;19.32;;;;;;;25.01;55.45;100408.93;2799330;83;21018;-64
2021/09/04 14:23:35;;;;;;;15.63;10.38;;;;;;;24.99;55.40;100411.04;2805906;85;21052;-65
2021/09/04 14:27:39;;;;;;;14.05;9.78;;;;;;;24.87;55.34;100408.18;2806598;80;21012;-64
2021/09/04 14:31:41;;;;;;;13.70;10.63;;;;;;;24.75;55.87;100409.87;2806657;84;20999;-64
2021/09/04 14:35:43;;;;;;;17.85;10.80;;;;;;;24.70;55.79;100402.91;2806566;84;20955;-64
2021/09/04 14:39:52;;;;;;;16.48;9.80;;;;;;;24.68;55.72;100397.16;2813327;79;21044;-65
2021/09/04 14:43:54;;;;;;;18.52;10.05;;;;;;;24.55;55.45;100405.37;2815368;82;21000;-63
2021/09/04 14:47:56;;;;;;;20.00;12.63;;;;;;;24.34;55.75;100406.52;2806757;80;21004;-64
2021/09/04 14:51:57;;;;;;;31.02;17.05;;;;;;;24.39;56.08;100404.83;2806572;80;20991;-64
2021/09/04 14:56:05;;;;;;;15.23;10.43;;;;;;;24.45;56.88;100404.47;2806580;85;20972;-64
2021/09/04 15:00:10;;;;;;;26.60;14.40;;;;;;;24.49;56.82;100405.73;2806788;80;21592;-64
2021/09/04 15:04:12;;;;;;;19.60;11.10;;;;;;;24.57;56.23;100396.50;2815717;84;21071;-64
2021/09/04 15:08:14;;;;;;;54.60;22.40;;;;;;;24.61;55.97;100404.52;2824130;83;21002;-64
2021/09/04 15:12:16;;;;;;;20.25;10.95;;;;;;;24.58;55.66;100404.11;2766837;85;21040;-64
2021/09/04 15:16:18;;;;;;;14.65;10.80;;;;;;;24.50;55.39;100407.40;2815716;83;21024;-64
2021/09/04 15:20:20;;;;;;;19.25;12.07;;;;;;;24.37;55.30;100401.49;2823088;82;20979;-64
2021/09/04 15:24:25;;;;;;;20.68;13.38;;;;;;;24.31;55.85;100398.80;2808254;85;20983;-64
2021/09/04 15:33:14;;;;;;;94.40;48.98;;;;;;;24.10;56.16;100389.33;2808216;85;20944;-64
2021/09/04 15:37:34;;;;;;;32.63;20.08;;;;;;;23.95;56.53;100388.70;2759657;85;20992;-64
2021/09/04 15:41:44;;;;;;;16.52;11.40;;;;;;;23.89;57.02;100389.56;2808326;85;21021;-63
2021/09/04 15:45:45;;;;;;;40.28;23.80;;;;;;;23.81;56.90;100396.05;2808313;82;21016;-64
2021/09/04 15:49:48;;;;;;;42.48;25.57;;;;;;;23.70;57.42;100396.16;2807881;80;23323;-64
2021/09/04 15:54:02;;;;;;;64.60;35.10;;;;;;;23.66;57.65;100388.95;2808222;85;21001;-64
2021/09/04 15:58:04;;;;;;;22.77;13.70;;;;;;;23.65;57.18;100385.92;2808399;82;21056;-64
2021/09/04 16:02:06;;;;;;;27.25;14.18;;;;;;;23.62;57.10;100393.67;2808364;85;21043;-66
2021/09/04 16:06:07;;;;;;;39.60;21.85;;;;;;;23.58;57.67;100388.33;2808417;80;21001;-65
2021/09/04 16:10:29;;;;;;;19.07;11.85;;;;;;;23.51;57.18;100391.07;2808579;85;20985;-66
2021/09/04 16:14:31;;;;;;;14.18;10.48;;;;;;;23.39;57.42;100389.51;2808433;82;21004;-65
2021/09/04 16:18:35;;;;;;;39.08;22.42;;;;;;;23.23;57.39;100389.34;2808343;85;20962;-64
2021/09/04 16:22:37;;;;;;;20.00;10.88;;;;;;;23.09;58.67;100393.41;2812325;84;20983;-65
2021/09/04 16:26:38;;;;;;;16.30;11.85;;;;;;;23.02;59.49;100398.51;2815937;84;20983;-65
2021/09/04 16:30:40;;;;;;;21.02;15.00;;;;;;;22.94;59.83;100401.70;2815938;84;20960;-64
2021/09/04 16:34:42;;;;;;;41.33;22.27;;;;;;;22.82;60.42;100401.47;2815857;84;21050;-65
2021/09/04 16:38:44;;;;;;;34.78;22.30;;;;;;;22.73;60.47;100405.92;2815757;83;20983;-65
2021/09/04 16:42:45;;;;;;;18.75;12.00;;;;;;;22.60;60.62;100400.80;2815870;84;21022;-64
2021/09/04 16:46:48;;;;;;;20.55;14.25;;;;;;;22.47;61.23;100397.48;2815825;84;21027;-66
2021/09/04 16:51:13;;;;;;;65.45;34.38;;;;;;;22.35;62.11;100397.20;2815922;82;20947;-65
2021/09/04 16:55:15;;;;;;;29.40;17.62;;;;;;;22.23;62.61;100394.22;2810241;84;20983;-65
2021/09/04 16:59:16;;;;;;;19.67;12.53;;;;;;;22.11;63.75;100399.37;2805036;85;20991;-66
2021/09/04 17:03:18;;;;;;;14.68;10.78;;;;;;;21.97;64.26;100397.61;2805189;85;20980;-66
2021/09/04 17:07:39;;;;;;;11.30;9.73;;;;;;;21.83;64.70;100400.25;2805118;85;21026;-65
2021/09/04 17:11:41;;;;;;;14.95;10.63;;;;;;;21.66;64.60;100400.22;2787706;85;21025;-65
2021/09/04 17:15:43;;;;;;;20.97;10.30;;;;;;;21.46;64.78;100398.66;2787822;83;21017;-65
2021/09/04 17:19:58;;;;;;;15.10;11.33;;;;;;;21.30;65.08;100397.89;2787875;85;21068;-65
2021/09/04 17:24:00;;;;;;;17.12;11.28;;;;;;;21.15;65.80;100398.50;2787594;84;20950;-65
2021/09/04 17:28:02;;;;;;;17.23;11.33;;;;;;;21.01;66.22;100409.67;2787839;84;21057;-65
2021/09/04 17:32:05;;;;;;;14.10;10.98;;;;;;;20.85;66.53;100407.55;2787939;85;21010;-66
2021/09/04 17:36:10;;;;;;;14.60;10.90;;;;;;;20.73;66.87;100417.14;2787759;85;21025;-65
2021/09/04 17:40:11;;;;;;;27.10;13.65;;;;;;;20.60;66.90;100419.99;2787845;81;21009;-64
2021/09/04 17:44:13;;;;;;;18.07;11.45;;;;;;;20.51;67.29;100423.31;2787783;85;21033;-64
2021/09/04 17:48:15;;;;;;;19.92;12.28;;;;;;;20.38;68.60;100426.69;2795034;84;21031;-65
2021/09/04 17:52:19;;;;;;;19.40;13.25;;;;;;;20.29;69.60;100429.17;2803715;84;21015;-64
2021/09/04 17:56:21;;;;;;;23.40;13.80;;;;;;;20.18;69.98;100432.32;2803792;85;20980;-64
2021/09/04 18:00:28;;;;;;;22.60;16.40;;;;;;;20.11;70.16;100441.17;2803748;84;20995;-65
2021/09/04 18:04:30;;;;;;;90.87;52.15;;;;;;;20.03;70.33;100449.34;2803978;84;21038;-64
2021/09/04 18:08:31;;;;;;;76.33;42.08;;;;;;;19.96;70.48;100451.11;2803797;84;20956;-64
2021/09/04 18:12:34;;;;;;;51.53;30.62;;;;;;;19.91;70.48;100456.20;2803753;84;21023;-66
2021/09/04 18:16:36;;;;;;;44.30;27.10;;;;;;;19.82;70.81;100458.95;2803951;84;20960;-64
2021/09/04 18:20:51;;;;;;;35.55;22.37;;;;;;;19.73;71.10;100461.41;2803808;84;21059;-64
2021/09/04 18:24:52;;;;;;;27.07;17.45;;;;;;;19.68;71.33;100467.34;2808117;85;20975;-65
2021/09/04 18:28:54;;;;;;;29.63;19.37;;;;;;;19.64;71.42;100477.33;2874896;83;20937;-64
2021/09/04 18:33:03;;;;;;;45.20;29.60;;;;;;;19.57;71.89;100481.78;2875018;81;20941;-64
2021/09/04 18:37:04;;;;;;;54.65;33.42;;;;;;;19.36;73.32;100491.37;2874995;83;20981;-64
2021/09/04 18:41:06;;;;;;;60.88;44.25;;;;;;;19.05;74.19;100496.25;2874699;81;21016;-64
2021/09/04 18:45:39;;;;;;;54.48;39.13;;;;;;;18.95;74.67;100509.42;2874925;83;20953;-64
2021/09/04 18:49:42;;;;;;;44.05;28.52;;;;;;;18.91;74.57;100512.14;2874888;81;21004;-64
2021/09/04 18:53:50;;;;;;;55.33;32.78;;;;;;;18.78;74.84;100507.31;2874918;81;20941;-64
2021/09/04 18:57:51;;;;;;;56.48;33.58;;;;;;;18.61;75.28;100519.98;2874873;81;21009;-63
2021/09/04 19:02:07;;;;;;;38.02;27.67;;;;;;;18.47;75.82;100520.69;2901080;81;20939;-64
2021/09/04 19:06:09;;;;;;;;;;;;;;;18.30;76.52;100518.06;2872434;81;20962;-64
2021/09/04 19:10:40;;;;;;;26.50;20.70;;;;;;;18.20;76.85;100519.59;2874647;81;20089;-63